Bookmark and Share
Track history (hours):
 

Hc Svea Kim

Last reported at 2014-Apr-04 19:33 UTC. Time now 2014-Apr-20 13:22 UTC.
Position N 29°31' W 094°53'.
Warning: this ship's position is 15 days out of date.

Length 129 m; draft 7.5 m.

Type: Cargo ship. MMSI: 304182000.

NotesDate/timePositionNaut miles runAvg speedWind from/ knotsBaromVisibWave heightAir tempDewpointWater temp
2014-Apr-04 19:33N 29°31' W 094°53'9 8.7
2014-Apr-04 18:33N 29°39' W 094°58'9 8.7
2014-Apr-04 17:33N 29°46' W 095°05'7 6.6
2014-Apr-04 16:33N 29°44' W 095°12'  
2014-Mar-31 00:33N 29°44' W 095°14'6 5.9
2014-Mar-30 23:33N 29°44' W 095°07'5 5.3
2014-Mar-30 22:33N 29°42' W 095°01'1110.9
2014-Mar-30 21:33N 29°33' W 094°55'1311.3
2014-Mar-30 20:27N 29°22' W 094°48'  
2014-Mar-26 17:33N 19°16' W 095°57'9 9.4
2014-Mar-26 16:34N 19°12' W 096°06'2 1.7
2014-Mar-26 15:32N 19°13' W 096°08'0 0.0
2014-Mar-26 14:32N 19°13' W 096°08'0 0.0
2014-Mar-26 13:32N 19°13' W 096°08'0 0.0
2014-Mar-26 12:32N 19°13' W 096°08'0 0.0
2014-Mar-26 11:32N 19°13' W 096°08'0 0.0
2014-Mar-26 10:32N 19°13' W 096°08'0 0.0
2014-Mar-26 09:32N 19°13' W 096°08'0 0.0
2014-Mar-26 08:29N 19°13' W 096°08'0 0.0
2014-Mar-26 07:32N 19°13' W 096°08'0 0.0
2014-Mar-26 00:32N 19°13' W 096°08'0 0.0
2014-Mar-25 23:32N 19°13' W 096°08'0 0.0
2014-Mar-25 22:29N 19°13' W 096°08'0 0.0
2014-Mar-25 21:32N 19°13' W 096°08'0 0.0
2014-Mar-25 20:20N 19°13' W 096°08'  

Dump ship's entire track history

sailing weather and tide predictions

Hc Svea Kim — V2BB — position and weather